Maersk_kyrenia — VRGM8 — position and weather

sailwx.info

Track history (hours):
 
Tides and Currents Weather Stations Pressure Air Temp Water Temp Dewpoint Dewpoint Depression Visibility Wind Speed Wind Dir Waves Ship Positions

Maersk_kyrenia

Last reported at 2016-May-05 01:05 UTC. Time now 2016-May-06 03:32 UTC.
Position N 36°41' E 122°38'.

Length 300 m; draft 10.6 m.

MMSI: 477733600.

Date/timePositionNaut miles runAvg speedWind from/ knotsBaromVisibWave heightAir tempDewpointWater temp
2016-May-05 01:05N 36°41' E 122°38'1014.5
2016-May-05 00:25N 36°45' E 122°48'1112.7
2016-May-04 23:33N 36°53' E 122°58'1313.0
2016-May-04 22:34N 37°06' E 122°58'1212.2
2016-May-04 21:33N 37°19' E 122°58'1211.7
2016-May-04 20:32N 37°30' E 122°58'1212.0
2016-May-04 19:33N 37°39' E 122°48'1312.7
2016-May-04 18:31N 37°46' E 122°34'1313.7
2016-May-04 17:33N 37°53' E 122°20'9112.6
2016-May-04 10:17N 38°34' E 120°36'1013.7
2016-May-04 09:33N 38°36' E 120°23'12313.7
2016-May-04 00:33N 38°59' E 117°48'0 0.2
2016-May-03 22:30N 38°59' E 117°47'0 0.0
2016-May-03 21:30N 38°59' E 117°47'0 0.0
2016-May-03 20:30N 38°59' E 117°47'0 0.0
2016-May-03 19:06N 38°59' E 117°47'0 0.0
2016-May-03 11:26N 38°59' E 117°47'17614.8
2016-May-02 23:31N 38°22' E 121°28'5819.5
2016-May-02 20:33N 37°52' E 122°31'  
2016-Apr-29 12:11N 38°49' E 121°54'711.8
2016-Apr-29 11:33N 38°42' E 121°50'1514.6
2016-Apr-29 10:33N 38°29' E 121°42'1816.3
2016-Apr-29 09:28N 38°29' E 121°20'15812.1
2016-Apr-28 20:29N 38°56' E 118°01'1111.9
2016-Apr-28 19:33N 38°59' E 117°47'0 0.4
2016-Apr-28 18:33N 38°60' E 117°47'0 0.0
2016-Apr-28 17:33N 38°60' E 117°47'0 0.0
2016-Apr-28 16:27N 38°60' E 117°47'0 0.0
2016-Apr-28 15:21N 38°60' E 117°47'0 0.0
2016-Apr-28 14:33N 38°60' E 117°47'0 0.0
2016-Apr-28 13:27N 38°60' E 117°47'0 0.0
2016-Apr-28 12:33N 38°60' E 117°47'0 0.0
2016-Apr-28 11:33N 38°60' E 117°47'0 0.0
2016-Apr-28 10:27N 38°60' E 117°47'0 0.0
2016-Apr-28 09:33N 38°60' E 117°47'0 0.0
2016-Apr-28 08:33N 38°60' E 117°47'0 0.0
2016-Apr-28 07:33N 38°60' E 117°47'0 0.0
2016-Apr-28 06:27N 38°60' E 117°47'0 0.0
2016-Apr-28 05:27N 38°60' E 117°47'0 0.0
2016-Apr-28 03:03N 38°60' E 117°47'1 1.2
2016-Apr-28 02:33N 38°59' E 117°47'10 9.7
2016-Apr-28 01:33N 38°57' E 117°59'15011.3
2016-Apr-27 12:17N 38°31' E 121°09'7519.8
2016-Apr-27 08:29N 37°52' E 122°31'48719.5
2016-Apr-26 07:32N 29°46' E 122°32'1413.7
2016-Apr-26 06:32N 29°47' E 122°16'9 8.9
2016-Apr-26 05:33N 29°49' E 122°06'1 0.1
2016-Apr-25 23:10N 29°48' E 122°06'0 0.1
2016-Apr-25 18:28N 29°48' E 122°06'0 0.0
2016-Apr-25 10:22N 29°48' E 122°06'0 0.0
2016-Apr-25 08:22N 29°48' E 122°06'0 0.1
2016-Apr-25 07:22N 29°48' E 122°06'  
Track history (hours):
 
Tides and Currents Weather Stations Pressure Air Temp Water Temp Dewpoint Dewpoint Depression Visibility Wind Speed Wind Dir Waves Ship Positions

Maersk_kyrenia

Last reported at 2016-May-05 01:05 UTC. Time now 2016-May-06 03:32 UTC.
Position N 36°41' E 122°38'.

Length 300 m; draft 10.6 m.

MMSI: 477733600.

Date/timePositionNaut miles runAvg speedWind from/ knotsBaromVisibWave heightAir tempDewpointWater temp
2016-May-05 01:05N 36°41' E 122°38'1014.5
2016-May-05 00:25N 36°45' E 122°48'1112.7
2016-May-04 23:33N 36°53' E 122°58'1313.0
2016-May-04 22:34N 37°06' E 122°58'1212.2
2016-May-04 21:33N 37°19' E 122°58'1211.7
2016-May-04 20:32N 37°30' E 122°58'1212.0
2016-May-04 19:33N 37°39' E 122°48'1312.7
2016-May-04 18:31N 37°46' E 122°34'1313.7
2016-May-04 17:33N 37°53' E 122°20'9112.6
2016-May-04 10:17N 38°34' E 120°36'1013.7
2016-May-04 09:33N 38°36' E 120°23'12313.7
2016-May-04 00:33N 38°59' E 117°48'0 0.2
2016-May-03 22:30N 38°59' E 117°47'0 0.0
2016-May-03 21:30N 38°59' E 117°47'0 0.0
2016-May-03 20:30N 38°59' E 117°47'0 0.0
2016-May-03 19:06N 38°59' E 117°47'0 0.0
2016-May-03 11:26N 38°59' E 117°47'17614.8
2016-May-02 23:31N 38°22' E 121°28'5819.5
2016-May-02 20:33N 37°52' E 122°31'  
2016-Apr-29 12:11N 38°49' E 121°54'711.8
2016-Apr-29 11:33N 38°42' E 121°50'1514.6
2016-Apr-29 10:33N 38°29' E 121°42'1816.3
2016-Apr-29 09:28N 38°29' E 121°20'15812.1
2016-Apr-28 20:29N 38°56' E 118°01'1111.9
2016-Apr-28 19:33N 38°59' E 117°47'0 0.4
2016-Apr-28 18:33N 38°60' E 117°47'0 0.0
2016-Apr-28 17:33N 38°60' E 117°47'0 0.0
2016-Apr-28 16:27N 38°60' E 117°47'0 0.0
2016-Apr-28 15:21N 38°60' E 117°47'0 0.0
2016-Apr-28 14:33N 38°60' E 117°47'0 0.0
2016-Apr-28 13:27N 38°60' E 117°47'0 0.0
2016-Apr-28 12:33N 38°60' E 117°47'0 0.0
2016-Apr-28 11:33N 38°60' E 117°47'0 0.0
2016-Apr-28 10:27N 38°60' E 117°47'0 0.0
2016-Apr-28 09:33N 38°60' E 117°47'0 0.0
2016-Apr-28 08:33N 38°60' E 117°47'0 0.0
2016-Apr-28 07:33N 38°60' E 117°47'0 0.0
2016-Apr-28 06:27N 38°60' E 117°47'0 0.0
2016-Apr-28 05:27N 38°60' E 117°47'0 0.0
2016-Apr-28 03:03N 38°60' E 117°47'1 1.2
2016-Apr-28 02:33N 38°59' E 117°47'10 9.7
2016-Apr-28 01:33N 38°57' E 117°59'15011.3
2016-Apr-27 12:17N 38°31' E 121°09'7519.8
2016-Apr-27 08:29N 37°52' E 122°31'48719.5
2016-Apr-26 07:32N 29°46' E 122°32'1413.7
2016-Apr-26 06:32N 29°47' E 122°16'9 8.9
2016-Apr-26 05:33N 29°49' E 122°06'1 0.1
2016-Apr-25 23:10N 29°48' E 122°06'0 0.1
2016-Apr-25 18:28N 29°48' E 122°06'0 0.0
2016-Apr-25 10:22N 29°48' E 122°06'0 0.0
2016-Apr-25 08:22N 29°48' E 122°06'0 0.1
2016-Apr-25 07:22N 29°48' E 122°06'  

Dump ship's entire track history